sensor_id;sensor_type;location;lat;lon;timestamp;pressure;altitude;pressure_sealevel;temperature;humidity
64521;BME280;50896;46.714;17.322;2022-07-10T00:00:40;100712.66;;;18.54;71.74
64521;BME280;50896;46.714;17.322;2022-07-10T00:03:07;100697.75;;;18.52;72.04
64521;BME280;50896;46.714;17.322;2022-07-10T00:05:34;100704.16;;;18.64;71.53
64521;BME280;50896;46.714;17.322;2022-07-10T00:08:02;100698.38;;;18.47;71.68
64521;BME280;50896;46.714;17.322;2022-07-10T00:10:29;100697.75;;;18.52;70.59
64521;BME280;50896;46.714;17.322;2022-07-10T00:12:56;100705.63;;;18.47;69.88
64521;BME280;50896;46.714;17.322;2022-07-10T00:15:23;100704.59;;;18.34;70.49
64521;BME280;50896;46.714;17.322;2022-07-10T00:17:50;100691.53;;;18.44;69.97
64521;BME280;50896;46.714;17.322;2022-07-10T00:20:17;100701.88;;;18.54;69.39
64521;BME280;50896;46.714;17.322;2022-07-10T00:22:43;100700.25;;;18.47;70.06
64521;BME280;50896;46.714;17.322;2022-07-10T00:25:12;100689.88;;;18.50;69.51
64521;BME280;50896;46.714;17.322;2022-07-10T00:27:40;100695.69;;;18.47;69.44
64521;BME280;50896;46.714;17.322;2022-07-10T00:30:11;100693.41;;;18.44;70.29
64521;BME280;50896;46.714;17.322;2022-07-10T00:32:38;100694.44;;;18.50;69.97
64521;BME280;50896;46.714;17.322;2022-07-10T00:35:05;100696.69;;;18.53;69.91
64521;BME280;50896;46.714;17.322;2022-07-10T00:37:32;100700.84;;;18.62;69.38
64521;BME280;50896;46.714;17.322;2022-07-10T00:40:00;100706.84;;;18.64;70.00
64521;BME280;50896;46.714;17.322;2022-07-10T00:42:26;100697.13;;;18.56;70.58
64521;BME280;50896;46.714;17.322;2022-07-10T00:44:54;100692.34;;;18.65;70.37
64521;BME280;50896;46.714;17.322;2022-07-10T00:47:21;100685.34;;;18.57;69.90
64521;BME280;50896;46.714;17.322;2022-07-10T00:49:48;100690.28;;;18.60;70.17
64521;BME280;50896;46.714;17.322;2022-07-10T00:52:16;100683.25;;;18.66;70.21
64521;BME280;50896;46.714;17.322;2022-07-10T00:54:45;100678.66;;;18.73;69.46
64521;BME280;50896;46.714;17.322;2022-07-10T00:57:13;100686.53;;;18.82;68.53
64521;BME280;50896;46.714;17.322;2022-07-10T00:59:41;100680.94;;;18.83;68.57
64521;BME280;50896;46.714;17.322;2022-07-10T01:02:09;100693.59;;;18.76;68.83
64521;BME280;50896;46.714;17.322;2022-07-10T01:04:36;100684.69;;;18.75;69.52
64521;BME280;50896;46.714;17.322;2022-07-10T01:07:03;100684.69;;;18.62;69.77
64521;BME280;50896;46.714;17.322;2022-07-10T01:09:32;100682.44;;;18.59;69.90
64521;BME280;50896;46.714;17.322;2022-07-10T01:12:03;100683.25;;;18.53;70.33
64521;BME280;50896;46.714;17.322;2022-07-10T01:14:31;100679.72;;;18.59;70.62
64521;BME280;50896;46.714;17.322;2022-07-10T01:16:58;100679.94;;;18.57;68.75
64521;BME280;50896;46.714;17.322;2022-07-10T01:19:25;100683.25;;;18.59;69.11
64521;BME280;50896;46.714;17.322;2022-07-10T01:21:52;100689.66;;;18.58;69.18
64521;BME280;50896;46.714;17.322;2022-07-10T01:24:19;100678.72;;;18.47;69.27
64521;BME280;50896;46.714;17.322;2022-07-10T01:26:46;100685.13;;;18.52;69.00
64521;BME280;50896;46.714;17.322;2022-07-10T01:29:13;100680.75;;;18.51;68.97
64521;BME280;50896;46.714;17.322;2022-07-10T01:31:40;100679.31;;;18.62;67.99
64521;BME280;50896;46.714;17.322;2022-07-10T01:34:08;100679.31;;;18.69;67.00
64521;BME280;50896;46.714;17.322;2022-07-10T01:36:38;100671.22;;;18.62;67.89
64521;BME280;50896;46.714;17.322;2022-07-10T01:39:06;100667.91;;;18.60;67.99
64521;BME280;50896;46.714;17.322;2022-07-10T01:41:33;100667.09;;;18.53;67.58
64521;BME280;50896;46.714;17.322;2022-07-10T01:44:01;100662.56;;;18.47;68.34
64521;BME280;50896;46.714;17.322;2022-07-10T01:46:28;100653.66;;;18.46;67.82
64521;BME280;50896;46.714;17.322;2022-07-10T01:48:55;100659.88;;;18.47;67.69
64521;BME280;50896;46.714;17.322;2022-07-10T01:51:22;100654.69;;;18.52;67.38
64521;BME280;50896;46.714;17.322;2022-07-10T01:53:49;100654.06;;;18.43;67.95
64521;BME280;50896;46.714;17.322;2022-07-10T01:56:16;100645.38;;;18.41;67.84
64521;BME280;50896;46.714;17.322;2022-07-10T01:58:43;100654.69;;;18.38;66.76
64521;BME280;50896;46.714;17.322;2022-07-10T02:01:11;100653.03;;;18.37;67.69
64521;BME280;50896;46.714;17.322;2022-07-10T02:03:38;100646.81;;;18.30;66.70
64521;BME280;50896;46.714;17.322;2022-07-10T02:06:24;100646.41;;;18.33;66.79
64521;BME280;50896;46.714;17.322;2022-07-10T02:08:51;100637.94;;;18.30;67.20
64521;BME280;50896;46.714;17.322;2022-07-10T02:11:18;100642.88;;;18.26;67.86
64521;BME280;50896;46.714;17.322;2022-07-10T02:13:45;100638.97;;;18.22;68.05
64521;BME280;50896;46.714;17.322;2022-07-10T02:16:12;100632.53;;;18.16;67.74
